Terminal Aerodrome Forecast
Issued by NWS Wichita, KS

Home | Current Version | Previous Version | Text Only | Print | Product List | Glossary On
Versions: 1 2 3 4 5 6 7 8 9 10 11 12 13 14 15 16 17 18 19 20
000
FTUS43 KICT 240520
TAFICT
TAF
KICT 240520Z 2406/2506 17022G30KT P6SM BKN200
     FM242200 18015G23KT P6SM SCT070
     FM250000 15007KT P6SM BKN200
     FM250200 35020G28KT P6SM SCT025=

USA.gov is the U.S. government's official web portal to all federal, state and local government web resources and services.